sensor_id;sensor_type;location;lat;lon;timestamp;P1;durP1;ratioP1;P2;durP2;ratioP2
45136;SDS011;30894;51.740;19.498;2022-09-27T00:00:08;14.57;;;7.00;;
45136;SDS011;30894;51.740;19.498;2022-09-27T00:02:55;22.30;;;7.07;;
45136;SDS011;30894;51.740;19.498;2022-09-27T00:05:22;17.10;;;6.80;;
45136;SDS011;30894;51.740;19.498;2022-09-27T00:07:48;13.65;;;6.50;;
45136;SDS011;30894;51.740;19.498;2022-09-27T00:10:14;19.90;;;7.40;;
45136;SDS011;30894;51.740;19.498;2022-09-27T00:12:40;19.77;;;7.22;;
45136;SDS011;30894;51.740;19.498;2022-09-27T00:15:07;18.02;;;8.02;;
45136;SDS011;30894;51.740;19.498;2022-09-27T00:17:36;25.00;;;7.70;;
45136;SDS011;30894;51.740;19.498;2022-09-27T00:20:04;28.13;;;7.55;;
45136;SDS011;30894;51.740;19.498;2022-09-27T00:22:32;19.83;;;7.03;;
45136;SDS011;30894;51.740;19.498;2022-09-27T00:24:58;23.65;;;7.03;;
45136;SDS011;30894;51.740;19.498;2022-09-27T00:27:25;13.05;;;6.80;;
45136;SDS011;30894;51.740;19.498;2022-09-27T00:29:52;19.95;;;6.28;;
45136;SDS011;30894;51.740;19.498;2022-09-27T00:32:19;17.58;;;6.38;;
45136;SDS011;30894;51.740;19.498;2022-09-27T00:34:46;18.02;;;6.47;;
45136;SDS011;30894;51.740;19.498;2022-09-27T00:37:12;14.25;;;6.57;;
45136;SDS011;30894;51.740;19.498;2022-09-27T00:39:38;18.83;;;6.97;;
45136;SDS011;30894;51.740;19.498;2022-09-27T00:42:05;18.17;;;6.95;;
45136;SDS011;30894;51.740;19.498;2022-09-27T00:53:30;14.30;;;5.80;;
45136;SDS011;30894;51.740;19.498;2022-09-27T00:56:16;14.82;;;6.53;;
45136;SDS011;30894;51.740;19.498;2022-09-27T00:58:49;16.65;;;7.25;;
45136;SDS011;30894;51.740;19.498;2022-09-27T01:01:41;19.13;;;6.80;;
45136;SDS011;30894;51.740;19.498;2022-09-27T01:04:10;16.75;;;7.78;;
45136;SDS011;30894;51.740;19.498;2022-09-27T01:06:38;15.68;;;7.20;;
45136;SDS011;30894;51.740;19.498;2022-09-27T01:09:05;15.25;;;7.65;;
45136;SDS011;30894;51.740;19.498;2022-09-27T01:11:37;14.98;;;7.45;;
45136;SDS011;30894;51.740;19.498;2022-09-27T01:17:42;12.20;;;5.85;;
45136;SDS011;30894;51.740;19.498;2022-09-27T01:29:44;14.13;;;6.82;;
45136;SDS011;30894;51.740;19.498;2022-09-27T01:39:01;15.20;;;5.85;;
45136;SDS011;30894;51.740;19.498;2022-09-27T01:41:53;15.85;;;6.32;;
45136;SDS011;30894;51.740;19.498;2022-09-27T01:44:49;11.93;;;6.25;;
45136;SDS011;30894;51.740;19.498;2022-09-27T01:47:30;12.38;;;6.10;;
45136;SDS011;30894;51.740;19.498;2022-09-27T01:50:29;14.65;;;6.97;;
45136;SDS011;30894;51.740;19.498;2022-09-27T01:52:55;11.02;;;5.88;;
45136;SDS011;30894;51.740;19.498;2022-09-27T01:55:34;17.02;;;6.22;;
45136;SDS011;30894;51.740;19.498;2022-09-27T01:58:07;15.48;;;5.72;;
45136;SDS011;30894;51.740;19.498;2022-09-27T02:00:45;14.40;;;6.20;;
45136;SDS011;30894;51.740;19.498;2022-09-27T02:03:17;12.90;;;5.80;;
45136;SDS011;30894;51.740;19.498;2022-09-27T02:05:51;10.25;;;5.47;;
45136;SDS011;30894;51.740;19.498;2022-09-27T02:08:34;19.27;;;6.63;;
45136;SDS011;30894;51.740;19.498;2022-09-27T02:11:10;12.00;;;6.22;;
45136;SDS011;30894;51.740;19.498;2022-09-27T02:16:44;9.02;;;5.00;;
45136;SDS011;30894;51.740;19.498;2022-09-27T02:22:33;13.88;;;5.90;;
45136;SDS011;30894;51.740;19.498;2022-09-27T02:30:52;13.40;;;5.63;;
45136;SDS011;30894;51.740;19.498;2022-09-27T02:33:19;11.20;;;5.60;;
45136;SDS011;30894;51.740;19.498;2022-09-27T02:35:52;15.07;;;4.95;;
45136;SDS011;30894;51.740;19.498;2022-09-27T02:38:19;15.45;;;5.93;;
45136;SDS011;30894;51.740;19.498;2022-09-27T02:40:46;13.02;;;5.90;;
45136;SDS011;30894;51.740;19.498;2022-09-27T02:43:13;11.00;;;4.57;;
45136;SDS011;30894;51.740;19.498;2022-09-27T02:46:47;14.40;;;5.40;;
45136;SDS011;30894;51.740;19.498;2022-09-27T02:58:13;8.82;;;4.45;;
45136;SDS011;30894;51.740;19.498;2022-09-27T03:00:34;9.98;;;4.43;;
45136;SDS011;30894;51.740;19.498;2022-09-27T03:03:13;12.88;;;5.40;;
45136;SDS011;30894;51.740;19.498;2022-09-27T03:05:51;11.82;;;5.10;;
45136;SDS011;30894;51.740;19.498;2022-09-27T03:08:27;13.73;;;4.95;;
45136;SDS011;30894;51.740;19.498;2022-09-27T03:10:53;12.93;;;5.65;;
45136;SDS011;30894;51.740;19.498;2022-09-27T03:13:19;13.27;;;5.72;;
45136;SDS011;30894;51.740;19.498;2022-09-27T03:15:46;11.15;;;4.80;;
45136;SDS011;30894;51.740;19.498;2022-09-27T03:18:13;11.40;;;5.38;;
45136;SDS011;30894;51.740;19.498;2022-09-27T03:20:40;14.18;;;5.88;;
45136;SDS011;30894;51.740;19.498;2022-09-27T03:23:06;16.52;;;6.32;;
45136;SDS011;30894;51.740;19.498;2022-09-27T03:25:32;12.75;;;5.45;;
45136;SDS011;30894;51.740;19.498;2022-09-27T03:27:58;17.15;;;5.20;;
45136;SDS011;30894;51.740;19.498;2022-09-27T03:30:25;13.68;;;5.25;;
45136;SDS011;30894;51.740;19.498;2022-09-27T03:32:51;14.93;;;5.88;;
45136;SDS011;30894;51.740;19.498;2022-09-27T03:35:17;13.80;;;5.70;;
45136;SDS011;30894;51.740;19.498;2022-09-27T03:37:45;12.15;;;5.00;;
45136;SDS011;30894;51.740;19.498;2022-09-27T03:40:11;18.08;;;5.55;;
45136;SDS011;30894;51.740;19.498;2022-09-27T03:42:38;16.10;;;5.65;;
45136;SDS011;30894;51.740;19.498;2022-09-27T03:45:04;15.48;;;5.03;;
45136;SDS011;30894;51.740;19.498;2022-09-27T03:47:31;16.90;;;6.35;;
45136;SDS011;30894;51.740;19.498;2022-09-27T03:49:58;12.73;;;4.93;;
45136;SDS011;30894;51.740;19.498;2022-09-27T03:52:24;10.80;;;4.85;;
45136;SDS011;30894;51.740;19.498;2022-09-27T03:54:50;16.90;;;5.80;;
45136;SDS011;30894;51.740;19.498;2022-09-27T03:57:16;13.60;;;4.80;;
45136;SDS011;30894;51.740;19.498;2022-09-27T03:59:43;11.38;;;5.55;;
45136;SDS011;30894;51.740;19.498;2022-09-27T04:02:09;12.35;;;5.15;;
45136;SDS011;30894;51.740;19.498;2022-09-27T04:04:35;15.57;;;5.43;;
45136;SDS011;30894;51.740;19.498;2022-09-27T04:07:01;13.50;;;5.80;;
45136;SDS011;30894;51.740;19.498;2022-09-27T04:09:31;13.68;;;6.07;;
45136;SDS011;30894;51.740;19.498;2022-09-27T04:11:57;14.40;;;6.35;;
45136;SDS011;30894;51.740;19.498;2022-09-27T04:14:22;20.65;;;6.35;;
45136;SDS011;30894;51.740;19.498;2022-09-27T04:16:51;16.50;;;6.25;;
45136;SDS011;30894;51.740;19.498;2022-09-27T04:19:17;12.05;;;6.20;;
45136;SDS011;30894;51.740;19.498;2022-09-27T04:21:43;16.85;;;6.90;;
45136;SDS011;30894;51.740;19.498;2022-09-27T04:24:09;14.48;;;5.68;;
45136;SDS011;30894;51.740;19.498;2022-09-27T04:26:36;15.93;;;5.85;;
45136;SDS011;30894;51.740;19.498;2022-09-27T04:29:04;20.23;;;7.28;;
45136;SDS011;30894;51.740;19.498;2022-09-27T04:31:30;15.20;;;5.88;;
45136;SDS011;30894;51.740;19.498;2022-09-27T04:33:56;14.85;;;6.75;;
45136;SDS011;30894;51.740;19.498;2022-09-27T04:36:23;10.65;;;4.53;;
45136;SDS011;30894;51.740;19.498;2022-09-27T04:38:52;12.65;;;5.97;;
45136;SDS011;30894;51.740;19.498;2022-09-27T04:41:21;17.35;;;6.25;;
45136;SDS011;30894;51.740;19.498;2022-09-27T04:43:51;15.05;;;5.82;;
45136;SDS011;30894;51.740;19.498;2022-09-27T04:46:18;16.20;;;6.43;;
45136;SDS011;30894;51.740;19.498;2022-09-27T04:48:46;14.30;;;5.65;;
45136;SDS011;30894;51.740;19.498;2022-09-27T04:51:13;16.45;;;6.88;;
45136;SDS011;30894;51.740;19.498;2022-09-27T04:53:44;18.55;;;6.80;;
45136;SDS011;30894;51.740;19.498;2022-09-27T04:56:12;13.15;;;5.30;;
45136;SDS011;30894;51.740;19.498;2022-09-27T04:58:38;16.42;;;5.70;;
45136;SDS011;30894;51.740;19.498;2022-09-27T05:01:05;14.55;;;5.50;;
45136;SDS011;30894;51.740;19.498;2022-09-27T05:03:31;12.98;;;5.90;;
45136;SDS011;30894;51.740;19.498;2022-09-27T05:05:58;14.65;;;6.55;;
45136;SDS011;30894;51.740;19.498;2022-09-27T05:08:26;13.98;;;7.22;;
45136;SDS011;30894;51.740;19.498;2022-09-27T05:10:52;14.05;;;6.38;;
45136;SDS011;30894;51.740;19.498;2022-09-27T05:13:19;14.10;;;5.82;;
45136;SDS011;30894;51.740;19.498;2022-09-27T05:15:46;16.20;;;6.03;;
45136;SDS011;30894;51.740;19.498;2022-09-27T05:18:13;15.63;;;6.15;;
45136;SDS011;30894;51.740;19.498;2022-09-27T05:20:39;15.23;;;7.07;;
45136;SDS011;30894;51.740;19.498;2022-09-27T05:23:06;14.18;;;6.10;;
45136;SDS011;30894;51.740;19.498;2022-09-27T05:25:33;13.60;;;5.68;;
45136;SDS011;30894;51.740;19.498;2022-09-27T05:27:59;15.23;;;6.47;;
45136;SDS011;30894;51.740;19.498;2022-09-27T05:30:28;30.23;;;9.23;;
45136;SDS011;30894;51.740;19.498;2022-09-27T05:32:55;14.98;;;7.07;;
45136;SDS011;30894;51.740;19.498;2022-09-27T05:35:21;13.65;;;6.20;;
45136;SDS011;30894;51.740;19.498;2022-09-27T05:37:54;14.63;;;5.88;;
45136;SDS011;30894;51.740;19.498;2022-09-27T05:40:23;15.73;;;6.07;;
45136;SDS011;30894;51.740;19.498;2022-09-27T05:42:52;12.80;;;5.93;;
45136;SDS011;30894;51.740;19.498;2022-09-27T05:45:20;7.80;;;3.97;;
45136;SDS011;30894;51.740;19.498;2022-09-27T05:47:55;14.70;;;6.40;;
45136;SDS011;30894;51.740;19.498;2022-09-27T05:50:23;12.13;;;5.28;;
45136;SDS011;30894;51.740;19.498;2022-09-27T05:52:50;17.85;;;6.65;;
45136;SDS011;30894;51.740;19.498;2022-09-27T05:55:17;15.45;;;6.05;;
45136;SDS011;30894;51.740;19.498;2022-09-27T05:58:05;13.85;;;5.72;;
45136;SDS011;30894;51.740;19.498;2022-09-27T06:00:32;13.70;;;6.18;;
45136;SDS011;30894;51.740;19.498;2022-09-27T06:03:00;13.75;;;5.97;;
45136;SDS011;30894;51.740;19.498;2022-09-27T06:05:30;15.50;;;5.70;;
45136;SDS011;30894;51.740;19.498;2022-09-27T06:08:01;15.50;;;7.13;;
45136;SDS011;30894;51.740;19.498;2022-09-27T06:10:30;16.10;;;6.53;;
45136;SDS011;30894;51.740;19.498;2022-09-27T06:13:00;14.95;;;6.97;;
45136;SDS011;30894;51.740;19.498;2022-09-27T06:15:33;15.93;;;7.43;;
45136;SDS011;30894;51.740;19.498;2022-09-27T06:18:05;15.43;;;6.88;;
45136;SDS011;30894;51.740;19.498;2022-09-27T06:20:37;16.60;;;6.78;;
45136;SDS011;30894;51.740;19.498;2022-09-27T06:23:08;13.05;;;6.43;;
45136;SDS011;30894;51.740;19.498;2022-09-27T06:25:39;13.55;;;6.45;;
45136;SDS011;30894;51.740;19.498;2022-09-27T06:28:06;12.27;;;6.35;;
45136;SDS011;30894;51.740;19.498;2022-09-27T06:30:37;16.60;;;7.18;;
45136;SDS011;30894;51.740;19.498;2022-09-27T06:33:10;14.77;;;6.43;;
45136;SDS011;30894;51.740;19.498;2022-09-27T06:35:41;21.67;;;7.13;;
45136;SDS011;30894;51.740;19.498;2022-09-27T06:38:10;17.88;;;6.85;;
45136;SDS011;30894;51.740;19.498;2022-09-27T06:40:43;21.48;;;7.88;;
45136;SDS011;30894;51.740;19.498;2022-09-27T06:43:18;17.48;;;6.45;;
45136;SDS011;30894;51.740;19.498;2022-09-27T06:45:48;16.27;;;8.00;;
45136;SDS011;30894;51.740;19.498;2022-09-27T06:48:15;17.35;;;7.82;;
45136;SDS011;30894;51.740;19.498;2022-09-27T06:50:44;20.05;;;8.23;;
45136;SDS011;30894;51.740;19.498;2022-09-27T06:53:19;14.15;;;5.70;;
45136;SDS011;30894;51.740;19.498;2022-09-27T06:55:50;13.27;;;5.90;;
45136;SDS011;30894;51.740;19.498;2022-09-27T06:58:32;14.60;;;6.25;;
45136;SDS011;30894;51.740;19.498;2022-09-27T07:01:16;16.63;;;7.05;;
45136;SDS011;30894;51.740;19.498;2022-09-27T07:03:46;17.15;;;7.00;;
45136;SDS011;30894;51.740;19.498;2022-09-27T07:06:16;19.50;;;7.43;;
45136;SDS011;30894;51.740;19.498;2022-09-27T07:08:48;13.98;;;6.30;;
45136;SDS011;30894;51.740;19.498;2022-09-27T07:11:18;18.20;;;7.90;;
45136;SDS011;30894;51.740;19.498;2022-09-27T07:13:47;21.17;;;8.25;;
45136;SDS011;30894;51.740;19.498;2022-09-27T07:16:22;15.05;;;7.45;;
45136;SDS011;30894;51.740;19.498;2022-09-27T07:18:51;17.90;;;7.50;;
45136;SDS011;30894;51.740;19.498;2022-09-27T07:21:19;16.58;;;7.80;;
45136;SDS011;30894;51.740;19.498;2022-09-27T07:23:55;20.48;;;8.13;;
45136;SDS011;30894;51.740;19.498;2022-09-27T07:26:24;17.23;;;7.20;;
45136;SDS011;30894;51.740;19.498;2022-09-27T07:28:57;15.55;;;7.38;;
45136;SDS011;30894;51.740;19.498;2022-09-27T07:31:26;16.67;;;8.30;;
45136;SDS011;30894;51.740;19.498;2022-09-27T07:34:00;17.33;;;7.43;;
45136;SDS011;30894;51.740;19.498;2022-09-27T07:36:29;14.98;;;7.30;;
45136;SDS011;30894;51.740;19.498;2022-09-27T07:39:03;18.85;;;8.02;;
45136;SDS011;30894;51.740;19.498;2022-09-27T07:44:01;22.50;;;8.50;;
45136;SDS011;30894;51.740;19.498;2022-09-27T07:46:33;20.73;;;7.40;;
45136;SDS011;30894;51.740;19.498;2022-09-27T07:49:09;19.08;;;7.65;;
45136;SDS011;30894;51.740;19.498;2022-09-27T07:51:35;17.33;;;7.47;;
45136;SDS011;30894;51.740;19.498;2022-09-27T07:54:01;19.77;;;9.18;;
45136;SDS011;30894;51.740;19.498;2022-09-27T07:56:27;19.85;;;8.63;;
45136;SDS011;30894;51.740;19.498;2022-09-27T07:58:57;20.92;;;8.98;;
45136;SDS011;30894;51.740;19.498;2022-09-27T08:01:30;20.52;;;8.18;;
45136;SDS011;30894;51.740;19.498;2022-09-27T08:03:59;18.15;;;7.88;;
45136;SDS011;30894;51.740;19.498;2022-09-27T08:06:25;13.98;;;7.18;;
45136;SDS011;30894;51.740;19.498;2022-09-27T08:08:56;18.48;;;8.25;;
45136;SDS011;30894;51.740;19.498;2022-09-27T08:11:27;14.48;;;6.78;;
45136;SDS011;30894;51.740;19.498;2022-09-27T08:14:04;11.00;;;5.10;;
45136;SDS011;30894;51.740;19.498;2022-09-27T08:16:34;20.23;;;6.82;;
45136;SDS011;30894;51.740;19.498;2022-09-27T08:19:10;15.68;;;6.63;;
45136;SDS011;30894;51.740;19.498;2022-09-27T08:21:39;11.27;;;5.30;;
45136;SDS011;30894;51.740;19.498;2022-09-27T08:24:12;15.38;;;8.02;;
45136;SDS011;30894;51.740;19.498;2022-09-27T08:26:41;17.55;;;7.35;;
45136;SDS011;30894;51.740;19.498;2022-09-27T08:29:09;13.88;;;6.93;;
45136;SDS011;30894;51.740;19.498;2022-09-27T08:31:45;15.50;;;7.78;;
45136;SDS011;30894;51.740;19.498;2022-09-27T08:34:15;18.77;;;8.27;;
45136;SDS011;30894;51.740;19.498;2022-09-27T08:36:41;17.75;;;8.57;;
45136;SDS011;30894;51.740;19.498;2022-09-27T08:39:22;15.32;;;8.07;;
45136;SDS011;30894;51.740;19.498;2022-09-27T08:44:27;13.93;;;7.50;;
45136;SDS011;30894;51.740;19.498;2022-09-27T08:47:16;15.85;;;7.82;;
45136;SDS011;30894;51.740;19.498;2022-09-27T08:49:57;19.45;;;8.30;;
45136;SDS011;30894;51.740;19.498;2022-09-27T08:52:43;17.80;;;7.45;;
45136;SDS011;30894;51.740;19.498;2022-09-27T09:01:02;18.92;;;8.77;;
45136;SDS011;30894;51.740;19.498;2022-09-27T09:03:42;16.70;;;7.78;;
45136;SDS011;30894;51.740;19.498;2022-09-27T09:06:22;18.95;;;9.57;;
45136;SDS011;30894;51.740;19.498;2022-09-27T09:21:17;26.98;;;8.68;;
45136;SDS011;30894;51.740;19.498;2022-09-27T09:24:48;18.90;;;8.25;;
45136;SDS011;30894;51.740;19.498;2022-09-27T09:33:37;19.98;;;7.10;;
45136;SDS011;30894;51.740;19.498;2022-09-27T09:36:27;15.80;;;8.02;;
45136;SDS011;30894;51.740;19.498;2022-09-27T09:39:12;15.18;;;7.45;;
45136;SDS011;30894;51.740;19.498;2022-09-27T09:42:01;19.00;;;8.13;;
45136;SDS011;30894;51.740;19.498;2022-09-27T09:44:47;17.63;;;7.32;;
45136;SDS011;30894;51.740;19.498;2022-09-27T09:47:32;15.65;;;7.97;;
45136;SDS011;30894;51.740;19.498;2022-09-27T09:50:28;15.15;;;6.97;;
45136;SDS011;30894;51.740;19.498;2022-09-27T09:53:39;15.95;;;7.80;;
45136;SDS011;30894;51.740;19.498;2022-09-27T09:56:31;17.23;;;7.95;;
45136;SDS011;30894;51.740;19.498;2022-09-27T09:59:03;13.75;;;7.45;;
45136;SDS011;30894;51.740;19.498;2022-09-27T10:02:12;16.05;;;7.93;;
45136;SDS011;30894;51.740;19.498;2022-09-27T10:05:09;15.45;;;7.45;;
45136;SDS011;30894;51.740;19.498;2022-09-27T10:07:51;17.60;;;8.20;;
45136;SDS011;30894;51.740;19.498;2022-09-27T10:10:24;21.42;;;8.60;;
45136;SDS011;30894;51.740;19.498;2022-09-27T10:12:58;14.48;;;7.68;;
45136;SDS011;30894;51.740;19.498;2022-09-27T10:15:29;12.27;;;6.43;;
45136;SDS011;30894;51.740;19.498;2022-09-27T10:17:58;12.43;;;6.47;;
45136;SDS011;30894;51.740;19.498;2022-09-27T10:26:02;7.50;;;4.28;;
45136;SDS011;30894;51.740;19.498;2022-09-27T10:28:37;12.20;;;4.57;;
45136;SDS011;30894;51.740;19.498;2022-09-27T10:31:22;10.75;;;6.32;;
45136;SDS011;30894;51.740;19.498;2022-09-27T10:33:58;10.40;;;5.47;;
45136;SDS011;30894;51.740;19.498;2022-09-27T10:37:03;9.70;;;5.85;;
45136;SDS011;30894;51.740;19.498;2022-09-27T10:39:36;8.82;;;5.30;;
45136;SDS011;30894;51.740;19.498;2022-09-27T10:45:28;10.55;;;5.60;;
45136;SDS011;30894;51.740;19.498;2022-09-27T10:48:02;9.90;;;5.72;;
45136;SDS011;30894;51.740;19.498;2022-09-27T10:50:30;15.18;;;5.90;;
45136;SDS011;30894;51.740;19.498;2022-09-27T10:53:11;9.50;;;5.00;;
45136;SDS011;30894;51.740;19.498;2022-09-27T10:55:49;8.65;;;4.75;;
45136;SDS011;30894;51.740;19.498;2022-09-27T10:58:22;11.05;;;5.97;;
45136;SDS011;30894;51.740;19.498;2022-09-27T11:01:08;14.90;;;5.88;;
45136;SDS011;30894;51.740;19.498;2022-09-27T11:03:57;11.15;;;6.00;;
45136;SDS011;30894;51.740;19.498;2022-09-27T11:06:26;11.45;;;5.90;;
45136;SDS011;30894;51.740;19.498;2022-09-27T11:09:17;8.40;;;4.65;;
45136;SDS011;30894;51.740;19.498;2022-09-27T11:12:28;10.15;;;5.28;;
45136;SDS011;30894;51.740;19.498;2022-09-27T11:15:03;6.63;;;4.35;;
45136;SDS011;30894;51.740;19.498;2022-09-27T11:20:38;5.95;;;3.97;;
45136;SDS011;30894;51.740;19.498;2022-09-27T11:26:40;4.88;;;2.78;;
45136;SDS011;30894;51.740;19.498;2022-09-27T11:35:01;6.60;;;3.42;;
45136;SDS011;30894;51.740;19.498;2022-09-27T12:08:46;7.28;;;3.97;;
45136;SDS011;30894;51.740;19.498;2022-09-27T12:11:26;5.35;;;3.30;;
45136;SDS011;30894;51.740;19.498;2022-09-27T12:14:09;5.07;;;3.45;;
45136;SDS011;30894;51.740;19.498;2022-09-27T12:16:58;4.55;;;2.70;;
45136;SDS011;30894;51.740;19.498;2022-09-27T12:19:50;4.20;;;3.13;;
45136;SDS011;30894;51.740;19.498;2022-09-27T12:22:24;5.15;;;2.85;;
45136;SDS011;30894;51.740;19.498;2022-09-27T12:25:27;5.35;;;2.78;;
45136;SDS011;30894;51.740;19.498;2022-09-27T12:30:41;5.72;;;3.45;;
45136;SDS011;30894;51.740;19.498;2022-09-27T12:33:17;4.38;;;2.90;;
45136;SDS011;30894;51.740;19.498;2022-09-27T12:36:33;5.50;;;3.28;;
45136;SDS011;30894;51.740;19.498;2022-09-27T12:42:05;9.68;;;3.60;;
45136;SDS011;30894;51.740;19.498;2022-09-27T12:44:47;4.32;;;2.80;;
45136;SDS011;30894;51.740;19.498;2022-09-27T12:47:22;7.15;;;3.13;;
45136;SDS011;30894;51.740;19.498;2022-09-27T12:50:57;5.97;;;3.33;;
45136;SDS011;30894;51.740;19.498;2022-09-27T13:08:47;5.90;;;3.15;;
45136;SDS011;30894;51.740;19.498;2022-09-27T13:26:00;4.57;;;2.35;;
45136;SDS011;30894;51.740;19.498;2022-09-27T13:36:20;4.55;;;3.05;;
45136;SDS011;30894;51.740;19.498;2022-09-27T13:39:20;6.40;;;2.90;;
45136;SDS011;30894;51.740;19.498;2022-09-27T13:47:38;6.43;;;2.80;;
45136;SDS011;30894;51.740;19.498;2022-09-27T13:50:27;4.28;;;2.80;;
45136;SDS011;30894;51.740;19.498;2022-09-27T14:02:35;3.28;;;2.20;;
45136;SDS011;30894;51.740;19.498;2022-09-27T14:05:38;4.22;;;2.40;;
45136;SDS011;30894;51.740;19.498;2022-09-27T14:14:11;2.78;;;2.20;;
45136;SDS011;30894;51.740;19.498;2022-09-27T14:16:53;5.20;;;2.60;;
45136;SDS011;30894;51.740;19.498;2022-09-27T14:19:28;2.67;;;2.40;;
45136;SDS011;30894;51.740;19.498;2022-09-27T14:21:56;4.68;;;2.33;;
45136;SDS011;30894;51.740;19.498;2022-09-27T14:27:43;6.18;;;3.33;;
45136;SDS011;30894;51.740;19.498;2022-09-27T14:30:35;5.65;;;3.67;;
45136;SDS011;30894;51.740;19.498;2022-09-27T14:33:02;6.60;;;3.42;;
45136;SDS011;30894;51.740;19.498;2022-09-27T14:35:31;8.48;;;3.45;;
45136;SDS011;30894;51.740;19.498;2022-09-27T14:38:19;6.35;;;3.00;;
45136;SDS011;30894;51.740;19.498;2022-09-27T14:43:40;5.78;;;3.80;;
45136;SDS011;30894;51.740;19.498;2022-09-27T14:46:22;8.82;;;3.50;;
45136;SDS011;30894;51.740;19.498;2022-09-27T14:48:57;5.65;;;3.63;;
45136;SDS011;30894;51.740;19.498;2022-09-27T14:51:40;6.10;;;3.10;;
45136;SDS011;30894;51.740;19.498;2022-09-27T14:54:37;4.93;;;2.47;;
45136;SDS011;30894;51.740;19.498;2022-09-27T14:57:19;9.70;;;3.38;;
45136;SDS011;30894;51.740;19.498;2022-09-27T15:02:19;8.45;;;3.50;;
45136;SDS011;30894;51.740;19.498;2022-09-27T15:04:48;8.05;;;4.10;;
45136;SDS011;30894;51.740;19.498;2022-09-27T15:07:24;8.00;;;3.75;;
45136;SDS011;30894;51.740;19.498;2022-09-27T15:09:53;8.45;;;4.57;;
45136;SDS011;30894;51.740;19.498;2022-09-27T15:12:23;8.13;;;3.83;;
45136;SDS011;30894;51.740;19.498;2022-09-27T15:14:58;6.80;;;3.35;;
45136;SDS011;30894;51.740;19.498;2022-09-27T15:17:26;7.75;;;3.40;;
45136;SDS011;30894;51.740;19.498;2022-09-27T15:20:00;8.93;;;3.80;;
45136;SDS011;30894;51.740;19.498;2022-09-27T15:22:44;8.32;;;3.75;;
45136;SDS011;30894;51.740;19.498;2022-09-27T15:28:03;4.65;;;1.80;;
45136;SDS011;30894;51.740;19.498;2022-09-27T15:30:36;2.35;;;1.50;;
45136;SDS011;30894;51.740;19.498;2022-09-27T15:33:05;2.83;;;1.63;;
45136;SDS011;30894;51.740;19.498;2022-09-27T15:35:56;3.88;;;1.98;;
45136;SDS011;30894;51.740;19.498;2022-09-27T15:38:40;6.70;;;1.80;;
45136;SDS011;30894;51.740;19.498;2022-09-27T15:41:12;2.33;;;1.73;;
45136;SDS011;30894;51.740;19.498;2022-09-27T15:43:59;4.95;;;1.75;;
45136;SDS011;30894;51.740;19.498;2022-09-27T15:52:54;2.28;;;1.92;;
45136;SDS011;30894;51.740;19.498;2022-09-27T15:55:40;3.78;;;2.35;;
45136;SDS011;30894;51.740;19.498;2022-09-27T15:58:19;2.63;;;1.63;;
45136;SDS011;30894;51.740;19.498;2022-09-27T16:00:50;3.40;;;1.42;;
45136;SDS011;30894;51.740;19.498;2022-09-27T16:03:22;4.45;;;1.70;;
45136;SDS011;30894;51.740;19.498;2022-09-27T16:05:51;2.33;;;1.20;;
45136;SDS011;30894;51.740;19.498;2022-09-27T16:08:24;2.15;;;0.95;;
45136;SDS011;30894;51.740;19.498;2022-09-27T16:10:59;3.17;;;1.30;;
45136;SDS011;30894;51.740;19.498;2022-09-27T16:13:27;2.47;;;1.27;;
45136;SDS011;30894;51.740;19.498;2022-09-27T16:16:02;3.13;;;1.00;;
45136;SDS011;30894;51.740;19.498;2022-09-27T16:18:54;1.75;;;0.57;;
45136;SDS011;30894;51.740;19.498;2022-09-27T16:21:31;0.35;;;0.35;;
45136;SDS011;30894;51.740;19.498;2022-09-27T16:23:57;4.80;;;1.42;;
45136;SDS011;30894;51.740;19.498;2022-09-27T16:26:34;0.90;;;0.52;;
45136;SDS011;30894;51.740;19.498;2022-09-27T16:29:09;0.93;;;0.55;;
45136;SDS011;30894;51.740;19.498;2022-09-27T16:31:38;1.23;;;0.70;;
45136;SDS011;30894;51.740;19.498;2022-09-27T16:34:12;0.55;;;0.45;;
45136;SDS011;30894;51.740;19.498;2022-09-27T16:36:39;1.45;;;1.05;;
45136;SDS011;30894;51.740;19.498;2022-09-27T16:39:13;0.85;;;0.82;;
45136;SDS011;30894;51.740;19.498;2022-09-27T16:41:42;1.00;;;0.95;;
45136;SDS011;30894;51.740;19.498;2022-09-27T16:44:15;0.37;;;0.37;;
45136;SDS011;30894;51.740;19.498;2022-09-27T16:46:49;1.17;;;1.00;;
45136;SDS011;30894;51.740;19.498;2022-09-27T16:49:17;0.77;;;0.75;;
45136;SDS011;30894;51.740;19.498;2022-09-27T16:52:02;2.00;;;1.00;;
45136;SDS011;30894;51.740;19.498;2022-09-27T16:54:37;1.35;;;1.02;;
45136;SDS011;30894;51.740;19.498;2022-09-27T16:57:07;1.02;;;0.93;;
45136;SDS011;30894;51.740;19.498;2022-09-27T16:59:41;2.45;;;0.90;;
45136;SDS011;30894;51.740;19.498;2022-09-27T17:04:38;1.02;;;0.90;;
45136;SDS011;30894;51.740;19.498;2022-09-27T17:07:08;0.95;;;0.50;;
45136;SDS011;30894;51.740;19.498;2022-09-27T17:09:44;0.40;;;0.40;;
45136;SDS011;30894;51.740;19.498;2022-09-27T17:12:18;0.93;;;0.68;;
45136;SDS011;30894;51.740;19.498;2022-09-27T17:14:47;0.20;;;0.20;;
45136;SDS011;30894;51.740;19.498;2022-09-27T17:17:20;0.20;;;0.20;;
45136;SDS011;30894;51.740;19.498;2022-09-27T17:19:50;0.20;;;0.20;;
45136;SDS011;30894;51.740;19.498;2022-09-27T17:22:16;0.52;;;0.25;;
45136;SDS011;30894;51.740;19.498;2022-09-27T17:24:45;0.10;;;0.10;;
45136;SDS011;30894;51.740;19.498;2022-09-27T17:27:18;0.00;;;0.00;;
45136;SDS011;30894;51.740;19.498;2022-09-27T17:29:45;0.10;;;0.10;;
45136;SDS011;30894;51.740;19.498;2022-09-27T17:32:11;0.22;;;0.22;;
45136;SDS011;30894;51.740;19.498;2022-09-27T17:34:38;0.10;;;0.10;;
45136;SDS011;30894;51.740;19.498;2022-09-27T17:37:09;0.10;;;0.10;;
45136;SDS011;30894;51.740;19.498;2022-09-27T17:39:36;0.10;;;0.10;;
45136;SDS011;30894;51.740;19.498;2022-09-27T17:42:03;0.10;;;0.10;;
45136;SDS011;30894;51.740;19.498;2022-09-27T17:44:31;0.10;;;0.10;;
45136;SDS011;30894;51.740;19.498;2022-09-27T17:46:57;0.10;;;0.10;;
45136;SDS011;30894;51.740;19.498;2022-09-27T17:49:49;0.38;;;0.38;;
45136;SDS011;30894;51.740;19.498;2022-09-27T17:52:34;0.10;;;0.10;;
45136;SDS011;30894;51.740;19.498;2022-09-27T17:55:00;0.10;;;0.10;;
45136;SDS011;30894;51.740;19.498;2022-09-27T17:57:27;0.10;;;0.10;;
45136;SDS011;30894;51.740;19.498;2022-09-27T17:59:54;0.08;;;0.08;;
45136;SDS011;30894;51.740;19.498;2022-09-27T18:02:23;0.10;;;0.10;;
45136;SDS011;30894;51.740;19.498;2022-09-27T18:04:51;0.10;;;0.10;;
45136;SDS011;30894;51.740;19.498;2022-09-27T18:07:17;0.10;;;0.10;;
45136;SDS011;30894;51.740;19.498;2022-09-27T18:09:44;0.00;;;0.00;;
45136;SDS011;30894;51.740;19.498;2022-09-27T18:12:10;0.10;;;0.10;;
45136;SDS011;30894;51.740;19.498;2022-09-27T18:14:38;0.00;;;0.00;;
45136;SDS011;30894;51.740;19.498;2022-09-27T18:17:04;0.05;;;0.05;;
45136;SDS011;30894;51.740;19.498;2022-09-27T18:19:30;0.10;;;0.10;;
45136;SDS011;30894;51.740;19.498;2022-09-27T18:21:56;0.10;;;0.10;;
45136;SDS011;30894;51.740;19.498;2022-09-27T18:24:25;0.10;;;0.10;;
45136;SDS011;30894;51.740;19.498;2022-09-27T18:26:54;0.10;;;0.10;;
45136;SDS011;30894;51.740;19.498;2022-09-27T18:29:21;0.10;;;0.10;;
45136;SDS011;30894;51.740;19.498;2022-09-27T18:31:48;0.10;;;0.10;;
45136;SDS011;30894;51.740;19.498;2022-09-27T18:34:16;0.00;;;0.00;;
45136;SDS011;30894;51.740;19.498;2022-09-27T18:36:43;0.10;;;0.10;;
45136;SDS011;30894;51.740;19.498;2022-09-27T18:39:10;0.10;;;0.10;;